sensor_id;sensor_type;location;lat;lon;timestamp;P1;durP1;ratioP1;P2;durP2;ratioP2
20830;SDS011;10576;53.556;9.868;2023-08-07T00:02:15;401.90;;;190.00;;
20830;SDS011;10576;53.556;9.868;2023-08-07T00:04:41;401.63;;;187.88;;
20830;SDS011;10576;53.556;9.868;2023-08-07T00:07:07;402.30;;;188.35;;
20830;SDS011;10576;53.556;9.868;2023-08-07T00:09:32;400.65;;;185.30;;
20830;SDS011;10576;53.556;9.868;2023-08-07T00:11:58;402.30;;;191.30;;
20830;SDS011;10576;53.556;9.868;2023-08-07T00:14:24;404.95;;;190.98;;
20830;SDS011;10576;53.556;9.868;2023-08-07T00:16:50;402.77;;;189.70;;
20830;SDS011;10576;53.556;9.868;2023-08-07T00:19:15;401.83;;;184.80;;
20830;SDS011;10576;53.556;9.868;2023-08-07T00:21:41;402.67;;;188.32;;
20830;SDS011;10576;53.556;9.868;2023-08-07T00:24:07;400.65;;;183.85;;
20830;SDS011;10576;53.556;9.868;2023-08-07T00:26:33;404.80;;;192.52;;
20830;SDS011;10576;53.556;9.868;2023-08-07T00:28:59;397.35;;;177.20;;
20830;SDS011;10576;53.556;9.868;2023-08-07T00:31:25;402.13;;;183.02;;
20830;SDS011;10576;53.556;9.868;2023-08-07T00:33:51;408.08;;;194.18;;
20830;SDS011;10576;53.556;9.868;2023-08-07T00:36:19;405.03;;;191.53;;
20830;SDS011;10576;53.556;9.868;2023-08-07T00:38:45;402.60;;;187.68;;
20830;SDS011;10576;53.556;9.868;2023-08-07T00:41:11;402.83;;;183.05;;
20830;SDS011;10576;53.556;9.868;2023-08-07T00:43:37;401.67;;;183.53;;
20830;SDS011;10576;53.556;9.868;2023-08-07T00:46:02;404.37;;;188.93;;
20830;SDS011;10576;53.556;9.868;2023-08-07T00:48:28;404.60;;;187.60;;
20830;SDS011;10576;53.556;9.868;2023-08-07T00:50:54;402.98;;;186.65;;
20830;SDS011;10576;53.556;9.868;2023-08-07T00:53:21;402.10;;;180.13;;
20830;SDS011;10576;53.556;9.868;2023-08-07T00:55:47;405.65;;;188.65;;
20830;SDS011;10576;53.556;9.868;2023-08-07T00:58:13;402.73;;;181.57;;
20830;SDS011;10576;53.556;9.868;2023-08-07T01:00:39;402.48;;;180.55;;
20830;SDS011;10576;53.556;9.868;2023-08-07T01:03:07;399.33;;;179.18;;
20830;SDS011;10576;53.556;9.868;2023-08-07T01:05:33;399.67;;;180.33;;
20830;SDS011;10576;53.556;9.868;2023-08-07T01:08:00;403.13;;;182.15;;
20830;SDS011;10576;53.556;9.868;2023-08-07T01:13:13;394.80;;;171.82;;
20830;SDS011;10576;53.556;9.868;2023-08-07T01:15:49;400.42;;;178.05;;
20830;SDS011;10576;53.556;9.868;2023-08-07T01:18:18;398.63;;;181.43;;
20830;SDS011;10576;53.556;9.868;2023-08-07T01:20:44;400.77;;;179.23;;
20830;SDS011;10576;53.556;9.868;2023-08-07T01:23:10;399.38;;;179.35;;
20830;SDS011;10576;53.556;9.868;2023-08-07T01:25:36;400.17;;;178.90;;
20830;SDS011;10576;53.556;9.868;2023-08-07T01:28:06;400.13;;;180.32;;
20830;SDS011;10576;53.556;9.868;2023-08-07T01:35:33;397.35;;;177.20;;
20830;SDS011;10576;53.556;9.868;2023-08-07T01:37:59;398.75;;;178.80;;
20830;SDS011;10576;53.556;9.868;2023-08-07T01:40:25;404.10;;;186.30;;
20830;SDS011;10576;53.556;9.868;2023-08-07T01:42:53;398.85;;;175.63;;
20830;SDS011;10576;53.556;9.868;2023-08-07T01:45:22;399.53;;;176.07;;
20830;SDS011;10576;53.556;9.868;2023-08-07T01:47:48;400.30;;;177.97;;
20830;SDS011;10576;53.556;9.868;2023-08-07T01:50:14;400.92;;;178.35;;
20830;SDS011;10576;53.556;9.868;2023-08-07T01:52:40;397.50;;;177.65;;
20830;SDS011;10576;53.556;9.868;2023-08-07T01:55:06;398.77;;;175.30;;
20830;SDS011;10576;53.556;9.868;2023-08-07T01:57:32;405.47;;;185.40;;
20830;SDS011;10576;53.556;9.868;2023-08-07T01:59:58;399.23;;;176.02;;
20830;SDS011;10576;53.556;9.868;2023-08-07T02:02:24;402.35;;;181.45;;
20830;SDS011;10576;53.556;9.868;2023-08-07T02:04:50;398.88;;;174.32;;
20830;SDS011;10576;53.556;9.868;2023-08-07T02:07:16;401.00;;;178.88;;
20830;SDS011;10576;53.556;9.868;2023-08-07T02:09:42;397.27;;;174.85;;
20830;SDS011;10576;53.556;9.868;2023-08-07T02:12:08;405.42;;;183.30;;
20830;SDS011;10576;53.556;9.868;2023-08-07T02:14:34;403.65;;;184.32;;
20830;SDS011;10576;53.556;9.868;2023-08-07T02:17:00;401.63;;;181.50;;
20830;SDS011;10576;53.556;9.868;2023-08-07T02:19:26;399.95;;;178.50;;
20830;SDS011;10576;53.556;9.868;2023-08-07T02:21:51;405.05;;;186.70;;
20830;SDS011;10576;53.556;9.868;2023-08-07T02:24:17;396.95;;;171.88;;
20830;SDS011;10576;53.556;9.868;2023-08-07T02:26:44;406.67;;;182.52;;
20830;SDS011;10576;53.556;9.868;2023-08-07T02:29:10;404.20;;;183.93;;
20830;SDS011;10576;53.556;9.868;2023-08-07T02:31:36;393.27;;;168.13;;
20830;SDS011;10576;53.556;9.868;2023-08-07T02:34:02;397.83;;;172.82;;
20830;SDS011;10576;53.556;9.868;2023-08-07T02:36:27;397.50;;;173.10;;
20830;SDS011;10576;53.556;9.868;2023-08-07T02:38:53;400.88;;;176.15;;
20830;SDS011;10576;53.556;9.868;2023-08-07T02:41:19;398.45;;;174.13;;
20830;SDS011;10576;53.556;9.868;2023-08-07T02:43:45;395.92;;;171.27;;
20830;SDS011;10576;53.556;9.868;2023-08-07T02:46:11;400.98;;;175.50;;
20830;SDS011;10576;53.556;9.868;2023-08-07T02:48:37;394.33;;;167.05;;
20830;SDS011;10576;53.556;9.868;2023-08-07T02:51:05;399.65;;;175.95;;
20830;SDS011;10576;53.556;9.868;2023-08-07T02:53:30;398.05;;;172.30;;
20830;SDS011;10576;53.556;9.868;2023-08-07T02:55:56;397.42;;;173.07;;
20830;SDS011;10576;53.556;9.868;2023-08-07T02:58:22;397.05;;;172.90;;
20830;SDS011;10576;53.556;9.868;2023-08-07T03:00:48;395.65;;;169.45;;
20830;SDS011;10576;53.556;9.868;2023-08-07T03:03:14;396.27;;;169.63;;
20830;SDS011;10576;53.556;9.868;2023-08-07T03:05:47;400.25;;;173.27;;
20830;SDS011;10576;53.556;9.868;2023-08-07T03:08:14;394.98;;;168.27;;
20830;SDS011;10576;53.556;9.868;2023-08-07T03:10:40;401.00;;;177.60;;
20830;SDS011;10576;53.556;9.868;2023-08-07T03:13:06;397.15;;;172.18;;
20830;SDS011;10576;53.556;9.868;2023-08-07T03:15:31;394.95;;;170.82;;
20830;SDS011;10576;53.556;9.868;2023-08-07T03:17:57;397.27;;;172.18;;
20830;SDS011;10576;53.556;9.868;2023-08-07T03:20:23;396.65;;;171.82;;
20830;SDS011;10576;53.556;9.868;2023-08-07T03:22:49;394.90;;;169.65;;
20830;SDS011;10576;53.556;9.868;2023-08-07T03:25:15;392.80;;;163.88;;
20830;SDS011;10576;53.556;9.868;2023-08-07T03:27:41;394.02;;;164.23;;
20830;SDS011;10576;53.556;9.868;2023-08-07T03:30:07;401.53;;;177.80;;
20830;SDS011;10576;53.556;9.868;2023-08-07T03:32:32;403.10;;;183.00;;
20830;SDS011;10576;53.556;9.868;2023-08-07T03:34:58;403.50;;;178.80;;
20830;SDS011;10576;53.556;9.868;2023-08-07T03:37:24;395.75;;;171.75;;
20830;SDS011;10576;53.556;9.868;2023-08-07T03:39:50;399.15;;;171.60;;
20830;SDS011;10576;53.556;9.868;2023-08-07T03:42:17;400.50;;;175.02;;
20830;SDS011;10576;53.556;9.868;2023-08-07T03:44:43;399.67;;;175.82;;
20830;SDS011;10576;53.556;9.868;2023-08-07T03:47:09;397.63;;;172.02;;
20830;SDS011;10576;53.556;9.868;2023-08-07T03:49:35;396.38;;;170.32;;
20830;SDS011;10576;53.556;9.868;2023-08-07T03:52:01;393.15;;;164.73;;
20830;SDS011;10576;53.556;9.868;2023-08-07T03:54:27;400.50;;;175.98;;
20830;SDS011;10576;53.556;9.868;2023-08-07T03:56:53;396.83;;;171.07;;
20830;SDS011;10576;53.556;9.868;2023-08-07T03:59:19;397.40;;;170.13;;
20830;SDS011;10576;53.556;9.868;2023-08-07T04:01:45;364.67;;;148.27;;
20830;SDS011;10576;53.556;9.868;2023-08-07T04:04:11;334.50;;;114.45;;
20830;SDS011;10576;53.556;9.868;2023-08-07T04:06:36;341.00;;;120.63;;
20830;SDS011;10576;53.556;9.868;2023-08-07T04:09:03;341.02;;;119.32;;
20830;SDS011;10576;53.556;9.868;2023-08-07T04:11:29;332.70;;;110.33;;
20830;SDS011;10576;53.556;9.868;2023-08-07T04:13:54;337.95;;;120.60;;
20830;SDS011;10576;53.556;9.868;2023-08-07T04:16:20;326.63;;;108.22;;
20830;SDS011;10576;53.556;9.868;2023-08-07T04:18:47;328.17;;;110.90;;
20830;SDS011;10576;53.556;9.868;2023-08-07T04:21:12;328.08;;;109.22;;
20830;SDS011;10576;53.556;9.868;2023-08-07T04:23:38;330.92;;;112.10;;
20830;SDS011;10576;53.556;9.868;2023-08-07T04:26:04;331.73;;;113.25;;
20830;SDS011;10576;53.556;9.868;2023-08-07T04:28:30;334.60;;;114.22;;
20830;SDS011;10576;53.556;9.868;2023-08-07T04:30:56;339.60;;;118.33;;
20830;SDS011;10576;53.556;9.868;2023-08-07T04:33:21;336.17;;;116.30;;
20830;SDS011;10576;53.556;9.868;2023-08-07T04:35:47;331.83;;;112.00;;
20830;SDS011;10576;53.556;9.868;2023-08-07T04:38:13;330.33;;;111.13;;
20830;SDS011;10576;53.556;9.868;2023-08-07T04:40:49;331.15;;;111.75;;
20830;SDS011;10576;53.556;9.868;2023-08-07T04:43:16;330.60;;;110.82;;
20830;SDS011;10576;53.556;9.868;2023-08-07T04:45:42;335.95;;;116.80;;
20830;SDS011;10576;53.556;9.868;2023-08-07T04:48:10;328.83;;;108.93;;
20830;SDS011;10576;53.556;9.868;2023-08-07T04:50:36;332.80;;;113.38;;
20830;SDS011;10576;53.556;9.868;2023-08-07T04:53:03;330.88;;;111.80;;
20830;SDS011;10576;53.556;9.868;2023-08-07T04:55:30;329.92;;;110.88;;
20830;SDS011;10576;53.556;9.868;2023-08-07T04:57:56;330.38;;;111.95;;
20830;SDS011;10576;53.556;9.868;2023-08-07T05:00:22;334.10;;;114.57;;
20830;SDS011;10576;53.556;9.868;2023-08-07T05:02:48;331.23;;;112.10;;
20830;SDS011;10576;53.556;9.868;2023-08-07T05:05:15;323.55;;;104.65;;
20830;SDS011;10576;53.556;9.868;2023-08-07T05:07:41;332.00;;;112.93;;
20830;SDS011;10576;53.556;9.868;2023-08-07T05:10:08;324.83;;;106.90;;
20830;SDS011;10576;53.556;9.868;2023-08-07T05:12:34;328.95;;;111.60;;
20830;SDS011;10576;53.556;9.868;2023-08-07T05:15:00;331.42;;;112.93;;
20830;SDS011;10576;53.556;9.868;2023-08-07T05:17:25;328.58;;;108.97;;
20830;SDS011;10576;53.556;9.868;2023-08-07T05:19:51;332.08;;;112.63;;
20830;SDS011;10576;53.556;9.868;2023-08-07T05:22:17;332.45;;;112.90;;
20830;SDS011;10576;53.556;9.868;2023-08-07T05:24:43;327.70;;;109.05;;
20830;SDS011;10576;53.556;9.868;2023-08-07T05:27:10;328.30;;;109.63;;
20830;SDS011;10576;53.556;9.868;2023-08-07T05:29:36;328.52;;;108.38;;
20830;SDS011;10576;53.556;9.868;2023-08-07T05:32:12;327.38;;;109.15;;
20830;SDS011;10576;53.556;9.868;2023-08-07T05:34:38;327.77;;;109.93;;
20830;SDS011;10576;53.556;9.868;2023-08-07T05:37:04;327.77;;;111.32;;
20830;SDS011;10576;53.556;9.868;2023-08-07T05:39:31;325.02;;;109.93;;
20830;SDS011;10576;53.556;9.868;2023-08-07T05:41:57;328.10;;;112.15;;
20830;SDS011;10576;53.556;9.868;2023-08-07T05:44:26;323.15;;;106.13;;
20830;SDS011;10576;53.556;9.868;2023-08-07T05:46:52;325.17;;;110.97;;
20830;SDS011;10576;53.556;9.868;2023-08-07T05:49:18;318.75;;;105.18;;
20830;SDS011;10576;53.556;9.868;2023-08-07T05:51:44;322.38;;;108.28;;
20830;SDS011;10576;53.556;9.868;2023-08-07T05:54:09;321.40;;;108.13;;
20830;SDS011;10576;53.556;9.868;2023-08-07T05:56:36;321.03;;;107.40;;
20830;SDS011;10576;53.556;9.868;2023-08-07T05:59:02;322.52;;;109.35;;
20830;SDS011;10576;53.556;9.868;2023-08-07T06:01:28;320.50;;;107.73;;
20830;SDS011;10576;53.556;9.868;2023-08-07T06:03:56;321.15;;;108.10;;
20830;SDS011;10576;53.556;9.868;2023-08-07T06:06:23;321.00;;;107.32;;
20830;SDS011;10576;53.556;9.868;2023-08-07T06:08:50;321.67;;;108.70;;
20830;SDS011;10576;53.556;9.868;2023-08-07T06:11:16;320.15;;;106.30;;
20830;SDS011;10576;53.556;9.868;2023-08-07T06:13:42;320.53;;;107.23;;
20830;SDS011;10576;53.556;9.868;2023-08-07T06:16:08;314.17;;;102.10;;
20830;SDS011;10576;53.556;9.868;2023-08-07T06:18:34;318.98;;;104.68;;
20830;SDS011;10576;53.556;9.868;2023-08-07T06:20:59;317.07;;;103.03;;
20830;SDS011;10576;53.556;9.868;2023-08-07T06:23:26;327.02;;;113.25;;
20830;SDS011;10576;53.556;9.868;2023-08-07T06:25:51;320.73;;;105.97;;
20830;SDS011;10576;53.556;9.868;2023-08-07T06:28:17;324.97;;;109.90;;
20830;SDS011;10576;53.556;9.868;2023-08-07T06:30:42;324.90;;;109.67;;
20830;SDS011;10576;53.556;9.868;2023-08-07T06:33:09;340.77;;;121.38;;
20830;SDS011;10576;53.556;9.868;2023-08-07T06:35:38;352.25;;;130.73;;
20830;SDS011;10576;53.556;9.868;2023-08-07T06:38:05;342.23;;;122.32;;
20830;SDS011;10576;53.556;9.868;2023-08-07T06:40:31;344.08;;;123.43;;
20830;SDS011;10576;53.556;9.868;2023-08-07T06:42:57;345.67;;;124.80;;
20830;SDS011;10576;53.556;9.868;2023-08-07T06:45:23;347.33;;;126.97;;
20830;SDS011;10576;53.556;9.868;2023-08-07T06:47:48;349.88;;;129.27;;
20830;SDS011;10576;53.556;9.868;2023-08-07T06:50:14;349.60;;;128.10;;
20830;SDS011;10576;53.556;9.868;2023-08-07T06:52:40;345.75;;;126.30;;
20830;SDS011;10576;53.556;9.868;2023-08-07T06:55:06;350.80;;;132.00;;
20830;SDS011;10576;53.556;9.868;2023-08-07T06:57:32;348.08;;;128.52;;
20830;SDS011;10576;53.556;9.868;2023-08-07T06:59:58;346.17;;;128.52;;
20830;SDS011;10576;53.556;9.868;2023-08-07T07:02:24;346.42;;;128.48;;
20830;SDS011;10576;53.556;9.868;2023-08-07T07:04:50;341.70;;;122.10;;
20830;SDS011;10576;53.556;9.868;2023-08-07T07:07:15;344.27;;;126.22;;
20830;SDS011;10576;53.556;9.868;2023-08-07T07:09:41;339.90;;;120.50;;
20830;SDS011;10576;53.556;9.868;2023-08-07T07:12:07;342.85;;;124.93;;
20830;SDS011;10576;53.556;9.868;2023-08-07T07:14:34;339.75;;;119.85;;
20830;SDS011;10576;53.556;9.868;2023-08-07T07:17:00;343.25;;;123.55;;
20830;SDS011;10576;53.556;9.868;2023-08-07T07:19:26;334.42;;;114.63;;
20830;SDS011;10576;53.556;9.868;2023-08-07T07:21:52;338.27;;;120.10;;
20830;SDS011;10576;53.556;9.868;2023-08-07T07:24:18;340.88;;;122.53;;
20830;SDS011;10576;53.556;9.868;2023-08-07T07:26:44;342.70;;;123.82;;
20830;SDS011;10576;53.556;9.868;2023-08-07T07:29:09;332.70;;;113.93;;
20830;SDS011;10576;53.556;9.868;2023-08-07T07:31:35;334.48;;;116.78;;
20830;SDS011;10576;53.556;9.868;2023-08-07T07:34:01;334.73;;;115.68;;
20830;SDS011;10576;53.556;9.868;2023-08-07T07:36:26;337.90;;;120.10;;
20830;SDS011;10576;53.556;9.868;2023-08-07T07:38:52;330.13;;;110.78;;
20830;SDS011;10576;53.556;9.868;2023-08-07T07:41:18;339.20;;;121.83;;
20830;SDS011;10576;53.556;9.868;2023-08-07T07:43:43;337.30;;;117.70;;
20830;SDS011;10576;53.556;9.868;2023-08-07T07:46:09;333.10;;;114.83;;
20830;SDS011;10576;53.556;9.868;2023-08-07T07:48:35;332.13;;;112.45;;
20830;SDS011;10576;53.556;9.868;2023-08-07T07:51:01;336.35;;;118.82;;
20830;SDS011;10576;53.556;9.868;2023-08-07T07:53:28;334.53;;;116.20;;
20830;SDS011;10576;53.556;9.868;2023-08-07T07:55:54;332.83;;;116.65;;
20830;SDS011;10576;53.556;9.868;2023-08-07T07:58:20;337.67;;;120.60;;
20830;SDS011;10576;53.556;9.868;2023-08-07T08:00:46;334.55;;;119.32;;
20830;SDS011;10576;53.556;9.868;2023-08-07T08:03:12;337.45;;;120.30;;
20830;SDS011;10576;53.556;9.868;2023-08-07T08:05:38;332.67;;;115.75;;
20830;SDS011;10576;53.556;9.868;2023-08-07T08:08:04;333.83;;;117.33;;
20830;SDS011;10576;53.556;9.868;2023-08-07T08:10:32;333.92;;;117.18;;
20830;SDS011;10576;53.556;9.868;2023-08-07T08:12:58;330.67;;;111.80;;
20830;SDS011;10576;53.556;9.868;2023-08-07T08:15:23;336.33;;;118.03;;
20830;SDS011;10576;53.556;9.868;2023-08-07T08:17:50;332.17;;;112.78;;
20830;SDS011;10576;53.556;9.868;2023-08-07T08:20:15;330.67;;;112.47;;
20830;SDS011;10576;53.556;9.868;2023-08-07T08:22:43;331.30;;;113.45;;
20830;SDS011;10576;53.556;9.868;2023-08-07T08:25:11;340.83;;;122.40;;
20830;SDS011;10576;53.556;9.868;2023-08-07T08:27:38;331.15;;;111.90;;
20830;SDS011;10576;53.556;9.868;2023-08-07T08:30:04;336.73;;;117.13;;
20830;SDS011;10576;53.556;9.868;2023-08-07T08:32:31;336.10;;;116.30;;
20830;SDS011;10576;53.556;9.868;2023-08-07T08:34:57;332.77;;;113.25;;
20830;SDS011;10576;53.556;9.868;2023-08-07T08:37:23;335.33;;;115.63;;
20830;SDS011;10576;53.556;9.868;2023-08-07T08:39:48;332.77;;;113.13;;
20830;SDS011;10576;53.556;9.868;2023-08-07T08:42:14;333.80;;;115.85;;
20830;SDS011;10576;53.556;9.868;2023-08-07T08:44:52;335.58;;;119.10;;
20830;SDS011;10576;53.556;9.868;2023-08-07T08:47:22;337.02;;;120.60;;
20830;SDS011;10576;53.556;9.868;2023-08-07T08:49:51;335.27;;;117.82;;
20830;SDS011;10576;53.556;9.868;2023-08-07T08:52:33;339.38;;;123.47;;
20830;SDS011;10576;53.556;9.868;2023-08-07T08:55:00;336.48;;;119.40;;
20830;SDS011;10576;53.556;9.868;2023-08-07T08:57:27;338.52;;;121.47;;
20830;SDS011;10576;53.556;9.868;2023-08-07T08:59:55;338.38;;;119.03;;
20830;SDS011;10576;53.556;9.868;2023-08-07T09:02:24;343.83;;;127.25;;
20830;SDS011;10576;53.556;9.868;2023-08-07T09:04:50;346.02;;;127.85;;
20830;SDS011;10576;53.556;9.868;2023-08-07T09:07:16;345.67;;;130.55;;
20830;SDS011;10576;53.556;9.868;2023-08-07T09:09:43;344.05;;;127.20;;
20830;SDS011;10576;53.556;9.868;2023-08-07T09:12:11;347.30;;;132.02;;
20830;SDS011;10576;53.556;9.868;2023-08-07T09:14:52;349.52;;;135.85;;
20830;SDS011;10576;53.556;9.868;2023-08-07T09:17:23;353.70;;;138.77;;
20830;SDS011;10576;53.556;9.868;2023-08-07T09:19:52;349.60;;;135.23;;
20830;SDS011;10576;53.556;9.868;2023-08-07T09:22:18;351.25;;;136.45;;
20830;SDS011;10576;53.556;9.868;2023-08-07T09:24:45;350.65;;;137.80;;
20830;SDS011;10576;53.556;9.868;2023-08-07T09:27:11;351.52;;;139.23;;
20830;SDS011;10576;53.556;9.868;2023-08-07T09:29:39;347.55;;;136.38;;
20830;SDS011;10576;53.556;9.868;2023-08-07T09:32:08;351.00;;;137.10;;
20830;SDS011;10576;53.556;9.868;2023-08-07T09:34:38;346.00;;;134.20;;
20830;SDS011;10576;53.556;9.868;2023-08-07T09:37:04;350.00;;;138.90;;
20830;SDS011;10576;53.556;9.868;2023-08-07T09:39:30;345.07;;;135.30;;
20830;SDS011;10576;53.556;9.868;2023-08-07T09:41:56;349.67;;;139.70;;
20830;SDS011;10576;53.556;9.868;2023-08-07T09:44:22;349.07;;;139.83;;
20830;SDS011;10576;53.556;9.868;2023-08-07T09:46:47;348.53;;;138.63;;
20830;SDS011;10576;53.556;9.868;2023-08-07T09:49:13;347.97;;;138.63;;
20830;SDS011;10576;53.556;9.868;2023-08-07T09:51:45;346.97;;;137.00;;
20830;SDS011;10576;53.556;9.868;2023-08-07T09:54:12;349.33;;;140.35;;
20830;SDS011;10576;53.556;9.868;2023-08-07T09:56:41;348.55;;;138.20;;
20830;SDS011;10576;53.556;9.868;2023-08-07T09:59:08;351.05;;;141.30;;
20830;SDS011;10576;53.556;9.868;2023-08-07T10:01:36;352.20;;;141.75;;
20830;SDS011;10576;53.556;9.868;2023-08-07T10:04:04;350.92;;;141.63;;
20830;SDS011;10576;53.556;9.868;2023-08-07T10:06:31;354.58;;;146.02;;
20830;SDS011;10576;53.556;9.868;2023-08-07T10:08:56;357.10;;;149.50;;
20830;SDS011;10576;53.556;9.868;2023-08-07T10:11:24;353.27;;;149.23;;
20830;SDS011;10576;53.556;9.868;2023-08-07T10:13:50;356.63;;;156.73;;
20830;SDS011;10576;53.556;9.868;2023-08-07T10:16:17;357.45;;;154.80;;
20830;SDS011;10576;53.556;9.868;2023-08-07T10:18:42;357.55;;;160.82;;
20830;SDS011;10576;53.556;9.868;2023-08-07T10:21:08;359.30;;;163.63;;
20830;SDS011;10576;53.556;9.868;2023-08-07T10:23:35;356.83;;;157.93;;
20830;SDS011;10576;53.556;9.868;2023-08-07T10:26:05;360.65;;;164.45;;
20830;SDS011;10576;53.556;9.868;2023-08-07T10:28:36;355.02;;;156.60;;
20830;SDS011;10576;53.556;9.868;2023-08-07T10:31:04;359.88;;;163.60;;
20830;SDS011;10576;53.556;9.868;2023-08-07T10:33:36;353.58;;;151.05;;
20830;SDS011;10576;53.556;9.868;2023-08-07T10:36:07;355.23;;;148.90;;
20830;SDS011;10576;53.556;9.868;2023-08-07T10:38:34;354.25;;;149.23;;
20830;SDS011;10576;53.556;9.868;2023-08-07T10:41:06;350.92;;;143.40;;
20830;SDS011;10576;53.556;9.868;2023-08-07T10:43:40;354.02;;;147.60;;
20830;SDS011;10576;53.556;9.868;2023-08-07T10:46:10;401.33;;;216.90;;
20830;SDS011;10576;53.556;9.868;2023-08-07T10:48:41;414.15;;;244.23;;
20830;SDS011;10576;53.556;9.868;2023-08-07T10:51:08;414.30;;;252.80;;
20830;SDS011;10576;53.556;9.868;2023-08-07T10:53:37;414.30;;;255.15;;
20830;SDS011;10576;53.556;9.868;2023-08-07T10:56:19;416.17;;;263.17;;
20830;SDS011;10576;53.556;9.868;2023-08-07T10:59:07;413.60;;;253.40;;
20830;SDS011;10576;53.556;9.868;2023-08-07T11:01:43;413.17;;;256.48;;
20830;SDS011;10576;53.556;9.868;2023-08-07T11:04:09;415.58;;;262.77;;
20830;SDS011;10576;53.556;9.868;2023-08-07T11:06:37;413.67;;;256.43;;
20830;SDS011;10576;53.556;9.868;2023-08-07T11:09:08;416.13;;;265.08;;
20830;SDS011;10576;53.556;9.868;2023-08-07T11:11:36;434.42;;;295.38;;
20830;SDS011;10576;53.556;9.868;2023-08-07T11:14:06;415.65;;;259.83;;
20830;SDS011;10576;53.556;9.868;2023-08-07T11:16:36;418.63;;;263.13;;
20830;SDS011;10576;53.556;9.868;2023-08-07T11:19:02;416.50;;;256.63;;
20830;SDS011;10576;53.556;9.868;2023-08-07T11:21:30;414.03;;;243.90;;
20830;SDS011;10576;53.556;9.868;2023-08-07T11:23:57;415.23;;;239.30;;
20830;SDS011;10576;53.556;9.868;2023-08-07T11:26:23;407.93;;;223.23;;
20830;SDS011;10576;53.556;9.868;2023-08-07T11:28:50;408.30;;;222.25;;
20830;SDS011;10576;53.556;9.868;2023-08-07T11:31:19;408.38;;;220.45;;
20830;SDS011;10576;53.556;9.868;2023-08-07T11:33:46;405.85;;;221.63;;
20830;SDS011;10576;53.556;9.868;2023-08-07T11:36:15;409.65;;;223.55;;
20830;SDS011;10576;53.556;9.868;2023-08-07T11:38:41;407.30;;;218.23;;
20830;SDS011;10576;53.556;9.868;2023-08-07T11:41:09;407.25;;;220.20;;
20830;SDS011;10576;53.556;9.868;2023-08-07T11:43:35;409.77;;;223.23;;
20830;SDS011;10576;53.556;9.868;2023-08-07T11:46:02;408.10;;;220.23;;
20830;SDS011;10576;53.556;9.868;2023-08-07T11:48:30;410.60;;;221.55;;
20830;SDS011;10576;53.556;9.868;2023-08-07T11:50:57;410.33;;;225.10;;
20830;SDS011;10576;53.556;9.868;2023-08-07T11:53:24;407.65;;;219.90;;
20830;SDS011;10576;53.556;9.868;2023-08-07T11:55:52;403.15;;;203.77;;
20830;SDS011;10576;53.556;9.868;2023-08-07T11:58:21;401.05;;;202.63;;
20830;SDS011;10576;53.556;9.868;2023-08-07T12:00:49;403.15;;;203.77;;
20830;SDS011;10576;53.556;9.868;2023-08-07T12:03:27;405.65;;;208.25;;
20830;SDS011;10576;53.556;9.868;2023-08-07T12:05:55;374.13;;;167.95;;
20830;SDS011;10576;53.556;9.868;2023-08-07T12:08:22;356.08;;;145.48;;
20830;SDS011;10576;53.556;9.868;2023-08-07T12:10:54;356.05;;;143.45;;
20830;SDS011;10576;53.556;9.868;2023-08-07T12:13:20;357.30;;;142.07;;
20830;SDS011;10576;53.556;9.868;2023-08-07T12:15:51;355.52;;;140.82;;
20830;SDS011;10576;53.556;9.868;2023-08-07T12:18:19;356.30;;;138.55;;
20830;SDS011;10576;53.556;9.868;2023-08-07T12:20:45;354.45;;;135.10;;
20830;SDS011;10576;53.556;9.868;2023-08-07T12:23:14;354.63;;;133.20;;
20830;SDS011;10576;53.556;9.868;2023-08-07T12:25:44;352.67;;;131.02;;
20830;SDS011;10576;53.556;9.868;2023-08-07T12:28:10;354.02;;;132.20;;
20830;SDS011;10576;53.556;9.868;2023-08-07T12:30:38;353.73;;;132.40;;
20830;SDS011;10576;53.556;9.868;2023-08-07T12:33:04;353.02;;;131.68;;
20830;SDS011;10576;53.556;9.868;2023-08-07T12:35:31;354.30;;;133.13;;
20830;SDS011;10576;53.556;9.868;2023-08-07T12:37:57;356.75;;;137.15;;
20830;SDS011;10576;53.556;9.868;2023-08-07T12:40:22;354.00;;;134.37;;
20830;SDS011;10576;53.556;9.868;2023-08-07T12:42:51;355.73;;;135.95;;
20830;SDS011;10576;53.556;9.868;2023-08-07T12:45:17;355.17;;;134.00;;
20830;SDS011;10576;53.556;9.868;2023-08-07T12:47:44;355.25;;;136.18;;
20830;SDS011;10576;53.556;9.868;2023-08-07T12:50:10;358.40;;;138.13;;
20830;SDS011;10576;53.556;9.868;2023-08-07T12:52:36;355.60;;;135.00;;
20830;SDS011;10576;53.556;9.868;2023-08-07T12:55:01;354.60;;;133.70;;
20830;SDS011;10576;53.556;9.868;2023-08-07T12:57:28;357.80;;;136.75;;
20830;SDS011;10576;53.556;9.868;2023-08-07T12:59:54;354.03;;;135.33;;
20830;SDS011;10576;53.556;9.868;2023-08-07T13:02:19;358.30;;;137.47;;
20830;SDS011;10576;53.556;9.868;2023-08-07T13:04:45;353.27;;;132.90;;
20830;SDS011;10576;53.556;9.868;2023-08-07T13:07:11;358.48;;;136.05;;
20830;SDS011;10576;53.556;9.868;2023-08-07T13:09:37;353.52;;;131.05;;
20830;SDS011;10576;53.556;9.868;2023-08-07T13:12:03;359.30;;;137.23;;
20830;SDS011;10576;53.556;9.868;2023-08-07T13:14:29;357.83;;;137.48;;
20830;SDS011;10576;53.556;9.868;2023-08-07T13:16:55;355.30;;;133.25;;
20830;SDS011;10576;53.556;9.868;2023-08-07T13:19:20;353.35;;;131.45;;
20830;SDS011;10576;53.556;9.868;2023-08-07T13:21:46;354.75;;;132.18;;
20830;SDS011;10576;53.556;9.868;2023-08-07T13:24:12;352.20;;;130.13;;
20830;SDS011;10576;53.556;9.868;2023-08-07T13:26:37;357.83;;;135.43;;
20830;SDS011;10576;53.556;9.868;2023-08-07T13:29:09;353.60;;;132.03;;
20830;SDS011;10576;53.556;9.868;2023-08-07T13:31:38;354.53;;;133.93;;
20830;SDS011;10576;53.556;9.868;2023-08-07T13:34:06;356.58;;;135.48;;
20830;SDS011;10576;53.556;9.868;2023-08-07T13:36:36;355.02;;;135.32;;
20830;SDS011;10576;53.556;9.868;2023-08-07T13:39:03;357.60;;;136.73;;
20830;SDS011;10576;53.556;9.868;2023-08-07T13:41:29;354.85;;;134.27;;
20830;SDS011;10576;53.556;9.868;2023-08-07T13:43:55;357.17;;;136.77;;
20830;SDS011;10576;53.556;9.868;2023-08-07T13:46:20;355.67;;;134.87;;
20830;SDS011;10576;53.556;9.868;2023-08-07T13:48:47;354.73;;;133.75;;
20830;SDS011;10576;53.556;9.868;2023-08-07T13:51:15;358.05;;;138.43;;
20830;SDS011;10576;53.556;9.868;2023-08-07T13:53:42;359.40;;;137.95;;
20830;SDS011;10576;53.556;9.868;2023-08-07T13:56:08;359.40;;;140.35;;
20830;SDS011;10576;53.556;9.868;2023-08-07T13:58:37;362.40;;;143.38;;
20830;SDS011;10576;53.556;9.868;2023-08-07T14:01:06;361.37;;;142.43;;
20830;SDS011;10576;53.556;9.868;2023-08-07T14:03:33;362.52;;;142.95;;